• Join FlightAware (Why Join?)
  • Login
  • US Flag 
12:20AM EDT


 

Airport Tracker/Info


-or-


 

Live Flight TrackerFlight Track Log ✈ SWA1004 ✈ 27-Apr-2013 ✈ KHOU - KELP

Flight Track Log - Related Links

Times and Time Zones

All times are in EDT time to prevent confusion due to time zone crossing. See the SWA1004 flight status page for this flight to view local times or setup timezone preferences in your user account.

Time Position Orientation Groundspeed Altitude Reporting Facility
EDT Latitude Longitude Course Direction KTS MPH feet Rate Location/Type
03:37PM 29.6308 -95.2633 269° West 152 175 1,000  Level Houston Center
03:39PM 29.6303 -95.3233 269° West 265 305 3,700 1,920 Climbing Houston Center
03:39PM 29.6353 -95.3311 306° West 244 281 4,000 3,300 Climbing Houston Center
03:40PM 29.6744 -95.3925 306° West 276 318 7,100 3,300 Climbing Houston Center
03:40PM 29.6808 -95.4011 310° West 261 300 7,400 3,900 Climbing Houston Center
03:41PM 29.7175 -95.4844 297° West 256 295 12,300 3,000 Climbing Houston Center
03:42PM 29.6636 -95.5483 226° Southwest 284 327 13,700 2,160 Climbing Houston Center
03:43PM 29.6169 -95.6361 239° Southwest 329 379 16,800 2,700 Climbing Houston Center
03:44PM 29.5775 -95.7314 245° Southwest 332 382 19,300 2,340 Climbing Houston Center
03:45PM 29.5594 -95.8400 259° West 350 403 21,700 2,040 Climbing Houston Center
03:46PM 29.5744 -95.9508 279° West 356 410 23,500 1,800 Climbing Houston Center
03:47PM 29.5636 -96.0714 264° West 374 430 25,400 1,920 Climbing Houston Center
03:48PM 29.5517 -96.2133 265° West 375 432 27,500 1,560 Climbing Houston Center
03:49PM 29.5403 -96.3364 264° West 387 445 28,700 1,800 Climbing Houston Center
03:50PM 29.5278 -96.4600 263° West 392 451 31,200 1,740 Climbing Houston Center
03:51PM 29.5522 -96.5744 284° West 382 440 32,300 1,320 Climbing Houston Center
03:52PM 29.5900 -96.6869 291° West 382 440 34,000 1,500 Climbing Houston Center
03:53PM 29.6247 -96.7992 290° West 378 435 35,400 960 Climbing Houston Center
03:54PM 29.6325 -96.9375 274° West 368 423 36,000 240 Climbing Houston Center
03:55PM 29.6714 -97.0475 292° West 373 429 36,000  Level Houston Center
03:56PM 29.7083 -97.1586 291° West 375 432 36,000  Level Houston Center
03:57PM 29.7472 -97.2706 292° West 377 434 36,000  Level Houston Center
03:58PM 29.7856 -97.3819 292° West 376 433 36,000  Level Houston Center
03:59PM 29.8236 -97.4936 291° West 375 432 36,000  Level Houston Center
04:00PM 29.8697 -97.6253 292° West 371 427 36,000  Level Houston Center
04:01PM 29.9064 -97.7336 291° West 365 420 36,100  Climbing Houston Center
04:02PM 29.9461 -97.8497 292° West 364 419 36,100  Level Houston Center
04:04PM 29.9822 -97.9581 291° West 363 418 36,100  Level Houston Center
04:05PM 30.0189 -98.0658 291° West 363 418 36,100  Level Houston Center
04:06PM 30.0589 -98.1831 292° West 365 420 36,100  Level Houston Center
04:07PM 30.0947 -98.2911 291° West 363 418 36,100 -60 Level Houston Center
04:08PM 30.1339 -98.4050 292° West 368 423 36,000  Descending Houston Center
04:09PM 30.1700 -98.5158 291° West 358 412 36,100  Climbing Houston Center
04:10PM 30.2058 -98.6242 291° West 361 415 36,100  Level Houston Center
04:11PM 30.2450 -98.7406 291° West 362 417 36,100  Level Houston Center
04:12PM 30.2808 -98.8478 291° West 360 414 36,100 -60 Level Houston Center
04:13PM 30.3147 -98.9483 291° West 363 418 36,000 -60 Descending Houston Center
04:14PM 30.3497 -99.0586 290° West 363 418 36,000  Level Houston Center
04:15PM 30.3878 -99.1683 292° West 359 413 36,000  Level Houston Center
04:16PM 30.4239 -99.2767 291° West 362 417 36,000  Level Houston Center
04:17PM 30.4589 -99.3861 290° West 363 418 36,000  Level Houston Center
04:18PM 30.5006 -99.5147 291° West 358 412 36,000  Level Houston Center
04:19PM 30.5364 -99.6239 291° West 362 417 36,000  Level Houston Center
04:20PM 30.5711 -99.7325 290° West 362 417 36,000  Level Houston Center
04:21PM 30.6031 -99.8417 289° West 359 413 36,000  Level Houston Center
04:22PM 30.6267 -99.9569 283° West 367 422 36,000  Level Houston Center
04:23PM 30.6500 -100.0725 283° West 371 427 36,000  Level Houston Center
04:24PM 30.6789 -100.2125 284° West 375 432 36,000  Level Houston Center
04:25PM 30.7011 -100.3244 283° West 364 419 36,000  Level Houston Center
04:26PM 30.7228 -100.4392 282° West 366 421 36,000  Level Houston Center
04:27PM 30.7450 -100.5547 283° West 370 426 36,000  Level Houston Center
04:28PM 30.7675 -100.6667 283° West 359 413 36,000  Level Houston Center
04:29PM 30.7900 -100.7811 283° West 363 418 36,000  Level Houston Center
04:30PM 30.8172 -100.9183 283° West 363 418 36,000  Level Houston Center
04:31PM 30.8394 -101.0314 283° West 360 414 36,000  Level Houston Center
04:32PM 30.8606 -101.1458 282° West 362 417 36,000  Level Houston Center
04:33PM 30.8847 -101.2572 284° West 358 412 36,000  Level Houston Center
04:34PM 30.9075 -101.3697 283° West 359 413 36,000  Level Houston Center
04:35PM 30.9211 -101.4525 281° West 361 415 36,000  Level Albuquerque Center
04:36PM 30.9425 -101.5664 282° West 361 415 36,000  Level Albuquerque Center
04:37PM 30.9633 -101.6817 282° West 362 417 36,000  Level Albuquerque Center
04:38PM 30.9853 -101.7950 283° West 360 414 36,000  Level Albuquerque Center
04:39PM 31.0067 -101.9083 282° West 359 413 36,000  Level Albuquerque Center
04:40PM 31.0283 -102.0372 281° West 367 422 36,000  Level Albuquerque Center
04:41PM 31.0508 -102.1508 283° West 362 417 36,000  Level Albuquerque Center
04:42PM 31.0719 -102.2644 282° West 360 414 36,000  Level Albuquerque Center
04:43PM 31.0925 -102.3775 282° West 359 413 36,000  Level Albuquerque Center
04:44PM 31.1131 -102.4922 282° West 360 414 36,000  Level Albuquerque Center
04:45PM 31.1367 -102.6211 282° West 352 405 36,000  Level Albuquerque Center
04:46PM 31.1575 -102.7361 282° West 357 411 36,000  Level Albuquerque Center
04:47PM 31.1775 -102.8519 281° West 361 415 36,000  Level Albuquerque Center
04:48PM 31.1978 -102.9664 282° West 360 414 36,000  Level Albuquerque Center
04:49PM 31.2181 -103.0811 282° West 360 414 36,000  Level Albuquerque Center
04:50PM 31.2428 -103.2203 282° West 363 418 36,000  Level Albuquerque Center
04:51PM 31.2622 -103.3350 281° West 362 417 36,000  Level Albuquerque Center
04:52PM 31.2814 -103.4500 281° West 361 415 36,000  Level Albuquerque Center
04:53PM 31.3014 -103.5656 281° West 362 417 36,000  Level Albuquerque Center
04:55PM 31.3219 -103.6803 282° West 362 417 36,000  Level Albuquerque Center
04:56PM 31.3439 -103.8053 282° West 363 418 36,000  Level Albuquerque Center
04:57PM 31.3625 -103.9214 281° West 364 419 36,000  Level Albuquerque Center
04:58PM 31.3825 -104.0367 282° West 364 419 36,000  Level Albuquerque Center
04:59PM 31.4025 -104.1525 281° West 365 420 36,000  Level Albuquerque Center
05:00PM 31.4222 -104.2681 281° West 364 419 36,000  Level Albuquerque Center
05:01PM 31.4456 -104.4072 281° West 365 420 36,000  Level Albuquerque Center
05:02PM 31.4608 -104.5250 279° West 366 421 36,000  Level Albuquerque Center
05:03PM 31.4728 -104.6417 277° West 365 420 36,000  Level Albuquerque Center
05:04PM 31.4839 -104.7594 276° West 365 420 36,000 -540 Level Albuquerque Center
05:05PM 31.4975 -104.8769 278° West 366 421 34,900 -2,280 Descending Albuquerque Center
05:06PM 31.5100 -104.9958 277° West 368 423 31,400 -3,840 Descending Albuquerque Center
05:07PM 31.5247 -105.1425 277° West 377 434 27,100 -3,480 Descending Albuquerque Center
05:08PM 31.5358 -105.2650 276° West 380 437 24,300 -2,760 Descending Albuquerque Center
05:09PM 31.5528 -105.4492 276° West 356 410 20,200 -2,640 Descending Albuquerque Center
05:10PM 31.5586 -105.5028 277° West 351 404 19,000 -2,460 Descending Albuquerque Center
05:11PM 31.5681 -105.6125 276° West 349 402 16,400 -2,760 Descending Albuquerque Center
05:12PM 31.5808 -105.7342 277° West 347 399 13,500 -2,880 Descending Albuquerque Center
05:13PM 31.6075 -105.8422 286° West 351 404 10,800 -1,740 Descending Albuquerque Center
05:14PM 31.6575 -105.9411 301° West 318 366 9,900 -900 Descending Albuquerque Center
05:15PM 31.6883 -106.0142 296° West 272 313 9,000 -1,560 Descending Albuquerque Center
05:16PM 31.7206 -106.0958 295° West 270 311 7,000 -1,620 Descending Albuquerque Center
05:17PM 31.7531 -106.1803 294° West 282 325 5,800 -600 Descending Albuquerque Center
05:18PM 31.7828 -106.2531 296° West 228 262 5,800 -420 Level Albuquerque Center
05:19PM 31.7983 -106.2981 292° West 151 174 4,900 -840 Descending Albuquerque Center
05:20PM 31.8006 -106.3458 273° West 145 167 4,300 -540 Descending Albuquerque Center
05:21PM 31.8042 -106.3928 275° West 149 171 3,900 -360 Descending Albuquerque Center
05:23PM 31.8072 -106.3764 270° West  Level Estimated
05:30PM 31.8072 -106.3764 270° West  Level Estimated
05:31PM 31.8072 -106.3764 270° West  Level Estimated
05:32PM 31.8072 -106.3764 270° West  Level Estimated
05:33PM 31.8072 -106.3764 270° West  Level Estimated